createdAt,value
2023-04-24T00:01:49.020Z,100.00
2023-04-24T00:04:18.311Z,100.00
2023-04-24T00:06:50.591Z,100.00
2023-04-24T00:09:18.649Z,100.00
2023-04-24T00:11:46.576Z,100.00
2023-04-24T00:14:15.878Z,100.00
2023-04-24T00:16:43.868Z,100.00
2023-04-24T00:19:12.251Z,100.00
2023-04-24T00:21:40.202Z,100.00
2023-04-24T00:24:10.043Z,100.00
2023-04-24T00:26:37.924Z,100.00
2023-04-24T00:29:05.912Z,100.00
2023-04-24T00:31:35.970Z,100.00
2023-04-24T00:34:04.337Z,100.00
2023-04-24T00:36:33.545Z,100.00
2023-04-24T00:39:01.457Z,100.00
2023-04-24T00:41:29.424Z,100.00
2023-04-24T00:43:57.403Z,100.00
2023-04-24T00:46:25.438Z,100.00
2023-04-24T00:48:55.127Z,100.00
2023-04-24T00:51:23.147Z,100.00
2023-04-24T00:53:52.091Z,100.00
2023-04-24T00:56:20.942Z,100.00
2023-04-24T00:58:49.769Z,100.00
2023-04-24T01:01:18.058Z,100.00
2023-04-24T01:03:46.716Z,100.00
2023-04-24T01:06:16.379Z,100.00
2023-04-24T01:08:45.306Z,100.00
2023-04-24T01:11:13.661Z,100.00
2023-04-24T01:13:42.192Z,100.00
2023-04-24T01:16:10.380Z,100.00
2023-04-24T01:18:39.290Z,100.00
2023-04-24T01:21:08.806Z,100.00
2023-04-24T01:23:38.168Z,100.00
2023-04-24T01:26:06.203Z,100.00
2023-04-24T01:28:34.246Z,100.00
2023-04-24T01:31:02.174Z,100.00
2023-04-24T01:33:30.237Z,100.00
2023-04-24T01:35:58.788Z,100.00
2023-04-24T01:38:26.853Z,100.00
2023-04-24T01:40:56.201Z,100.00
2023-04-24T01:43:24.148Z,100.00
2023-04-24T01:45:52.067Z,100.00
2023-04-24T01:48:20.269Z,100.00
2023-04-24T01:50:48.854Z,100.00
2023-04-24T01:53:16.829Z,100.00
2023-04-24T01:55:44.891Z,100.00
2023-04-24T01:58:14.179Z,100.00
2023-04-24T02:00:42.170Z,100.00
2023-04-24T02:03:10.321Z,100.00
2023-04-24T02:05:38.386Z,100.00
2023-04-24T02:08:06.323Z,100.00
2023-04-24T02:10:34.171Z,100.00
2023-04-24T02:13:02.069Z,100.00
2023-04-24T02:15:31.379Z,100.00
2023-04-24T02:17:59.375Z,100.00
2023-04-24T02:20:27.630Z,100.00
2023-04-24T02:22:57.793Z,100.00
2023-04-24T02:25:26.074Z,100.00
2023-04-24T02:27:55.091Z,100.00
2023-04-24T02:30:23.044Z,100.00
2023-04-24T02:32:52.611Z,100.00
2023-04-24T02:35:21.836Z,100.00
2023-04-24T02:37:49.872Z,100.00
2023-04-24T02:40:17.824Z,100.00
2023-04-24T02:42:45.780Z,100.00
2023-04-24T02:45:13.638Z,100.00
2023-04-24T02:47:41.668Z,100.00
2023-04-24T02:50:11.578Z,100.00
2023-04-24T02:52:39.613Z,100.00
2023-04-24T02:55:09.025Z,100.00
2023-04-24T02:57:36.955Z,100.00
2023-04-24T03:00:07.891Z,100.00
2023-04-24T03:02:35.900Z,100.00
2023-04-24T03:05:05.664Z,100.00
2023-04-24T03:07:34.925Z,100.00
2023-04-24T03:10:02.770Z,100.00
2023-04-24T03:12:30.722Z,100.00
2023-04-24T03:14:58.625Z,100.00
2023-04-24T03:17:26.712Z,100.00
2023-04-24T03:19:54.595Z,100.00
2023-04-24T03:22:22.558Z,100.00
2023-04-24T03:24:51.865Z,100.00
2023-04-24T03:27:20.108Z,100.00
2023-04-24T03:29:48.025Z,100.00
2023-04-24T03:32:16.036Z,100.00
2023-04-24T03:34:43.937Z,100.00
2023-04-24T03:37:11.987Z,100.00
2023-04-24T03:39:40.036Z,100.00
2023-04-24T03:42:09.526Z,100.00
2023-04-24T03:44:37.793Z,100.00
2023-04-24T03:47:06.129Z,100.00
2023-04-24T03:49:34.018Z,100.00
2023-04-24T03:52:02.034Z,100.00
2023-04-24T03:54:29.909Z,100.00
2023-04-24T03:56:58.055Z,100.00
2023-04-24T03:59:27.412Z,100.00
2023-04-24T04:01:55.538Z,100.00
2023-04-24T04:04:23.912Z,100.00
2023-04-24T04:06:52.141Z,100.00
2023-04-24T04:09:20.139Z,100.00
2023-04-24T04:11:48.068Z,100.00
2023-04-24T04:14:15.957Z,100.00
2023-04-24T04:16:45.621Z,100.00
2023-04-24T04:19:13.628Z,100.00
2023-04-24T04:21:41.614Z,100.00
2023-04-24T04:24:10.775Z,100.00
2023-04-24T04:26:38.814Z,100.00
2023-04-24T04:29:07.750Z,100.00
2023-04-24T04:31:35.697Z,100.00
2023-04-24T04:34:05.003Z,100.00
2023-04-24T04:36:32.851Z,100.00
2023-04-24T04:39:01.122Z,100.00
2023-04-24T04:41:29.054Z,100.00
2023-04-24T04:43:59.567Z,100.00
2023-04-24T04:46:28.157Z,100.00
2023-04-24T04:48:57.723Z,100.00
2023-04-24T04:51:27.017Z,100.00
2023-04-24T04:53:54.911Z,100.00
2023-04-24T04:56:23.003Z,100.00
2023-04-24T04:58:50.904Z,100.00
2023-04-24T05:01:18.832Z,100.00
2023-04-24T05:03:46.964Z,100.00
2023-04-24T05:06:15.128Z,100.00
2023-04-24T05:08:44.567Z,100.00
2023-04-24T05:11:13.582Z,100.00
2023-04-24T05:13:41.570Z,100.00
2023-04-24T05:16:09.749Z,100.00
2023-04-24T05:18:37.781Z,100.00
2023-04-24T05:21:05.772Z,100.00
2023-04-24T05:23:33.809Z,100.00
2023-04-24T05:26:04.577Z,100.00
2023-04-24T05:28:34.298Z,100.00
2023-04-24T05:31:02.244Z,100.00
2023-04-24T05:33:30.247Z,100.00
2023-04-24T05:35:58.711Z,100.00
2023-04-24T05:38:26.815Z,100.00
2023-04-24T05:40:54.808Z,100.00
2023-04-24T05:43:24.313Z,100.00
2023-04-24T05:45:52.319Z,100.00
2023-04-24T05:48:20.394Z,100.00
2023-04-24T05:50:48.999Z,100.00
2023-04-24T05:53:17.651Z,100.00
2023-04-24T05:55:45.783Z,100.00
2023-04-24T05:58:14.017Z,100.00
2023-04-24T06:00:44.638Z,100.00
2023-04-24T06:03:12.834Z,100.00
2023-04-24T06:05:40.888Z,100.00
2023-04-24T06:08:08.962Z,100.00
2023-04-24T06:10:37.081Z,100.00
2023-04-24T06:13:05.020Z,100.00
2023-04-24T06:15:33.004Z,100.00
2023-04-24T06:18:02.397Z,100.00
2023-04-24T06:20:30.483Z,100.00
2023-04-24T06:22:58.678Z,100.00
2023-04-24T06:25:28.366Z,100.00
2023-04-24T06:27:56.370Z,100.00
2023-04-24T06:30:24.407Z,100.00
2023-04-24T06:32:53.201Z,100.00
2023-04-24T06:35:23.087Z,100.00
2023-04-24T06:37:51.326Z,100.00
2023-04-24T06:40:19.799Z,100.00
2023-04-24T06:42:47.884Z,100.00
2023-04-24T06:45:15.868Z,100.00
2023-04-24T06:47:44.309Z,100.00
2023-04-24T06:50:13.014Z,100.00
2023-04-24T06:52:43.087Z,100.00
2023-04-24T06:55:12.174Z,100.00
2023-04-24T06:57:40.106Z,100.00
2023-04-24T07:00:10.414Z,100.00
2023-04-24T07:02:38.757Z,100.00
2023-04-24T07:05:07.973Z,100.00
2023-04-24T07:07:38.828Z,100.00
2023-04-24T07:10:09.736Z,100.00
2023-04-24T07:12:38.559Z,100.00
2023-04-24T07:15:08.941Z,100.00
2023-04-24T07:17:37.099Z,100.00
2023-04-24T07:20:06.629Z,100.00
2023-04-24T07:22:34.546Z,100.00
2023-04-24T07:25:02.740Z,100.00
2023-04-24T07:27:32.050Z,100.00
2023-04-24T07:29:59.907Z,100.00
2023-04-24T07:32:27.797Z,100.00
2023-04-24T07:34:56.295Z,100.00
2023-04-24T07:37:24.996Z,100.00
2023-04-24T07:39:52.966Z,100.00
2023-04-24T07:42:20.928Z,100.00
2023-04-24T07:44:50.207Z,100.00
2023-04-24T07:47:18.241Z,100.00
2023-04-24T07:49:46.272Z,100.00
2023-04-24T07:52:14.216Z,100.00
2023-04-24T07:54:44.735Z,100.00
2023-04-24T07:57:12.830Z,100.00
2023-04-24T07:59:41.094Z,100.00
2023-04-24T08:02:10.818Z,100.00
2023-04-24T08:04:38.905Z,100.00
2023-04-24T08:07:06.916Z,100.00
2023-04-24T08:09:34.835Z,100.00
2023-04-24T08:12:03.646Z,100.00
2023-04-24T08:14:31.825Z,100.00
2023-04-24T08:17:01.210Z,100.00
2023-04-24T08:19:30.515Z,100.00
2023-04-24T08:21:58.391Z,100.00
2023-04-24T08:24:26.406Z,100.00
2023-04-24T08:26:55.446Z,99.66
2023-04-24T08:29:23.479Z,98.75
2023-04-24T08:31:51.627Z,97.49
2023-04-24T08:34:19.572Z,99.36
2023-04-24T08:36:49.267Z,95.51
2023-04-24T08:39:18.105Z,93.84
2023-04-24T08:41:46.686Z,89.69
2023-04-24T08:44:16.770Z,89.33
2023-04-24T08:46:46.349Z,90.58
2023-04-24T08:49:17.289Z,89.51
2023-04-24T08:51:45.834Z,91.94
2023-04-24T08:54:16.728Z,91.90
2023-04-24T08:56:46.589Z,88.15
2023-04-24T08:59:15.291Z,88.81
2023-04-24T09:01:44.073Z,87.56
2023-04-24T09:04:13.988Z,87.93
2023-04-24T09:06:42.718Z,81.41
2023-04-24T09:09:12.843Z,80.82
2023-04-24T09:11:43.685Z,79.74
2023-04-24T09:14:12.335Z,79.30
2023-04-24T09:16:40.330Z,77.05
2023-04-24T09:19:08.320Z,77.72
2023-04-24T09:21:37.190Z,76.65
2023-04-24T09:24:08.211Z,75.21
2023-04-24T09:26:38.229Z,72.87
2023-04-24T09:29:07.537Z,72.21
2023-04-24T09:31:35.861Z,71.47
2023-04-24T09:34:08.125Z,70.27
2023-04-24T09:36:39.252Z,71.43
2023-04-24T09:39:11.819Z,71.32
2023-04-24T09:41:47.074Z,69.61
2023-04-24T09:44:17.942Z,68.38
2023-04-24T09:46:47.667Z,70.27
2023-04-24T09:49:17.322Z,67.22
2023-04-24T09:51:45.570Z,68.43
2023-04-24T09:54:17.917Z,69.32
2023-04-24T09:56:47.455Z,67.65
2023-04-24T09:59:18.744Z,65.76
2023-04-24T10:01:47.399Z,66.64
2023-04-24T10:04:20.558Z,65.86
2023-04-24T10:06:49.882Z,66.19
2023-04-24T10:09:18.564Z,64.70
2023-04-24T10:11:48.643Z,65.99
2023-04-24T10:14:19.219Z,66.03
2023-04-24T10:16:48.162Z,65.85
2023-04-24T10:19:17.060Z,65.13
2023-04-24T10:21:47.711Z,63.32
2023-04-24T10:24:16.268Z,62.19
2023-04-24T10:26:44.884Z,63.21
2023-04-24T10:29:13.862Z,62.59
2023-04-24T10:31:46.632Z,62.65
2023-04-24T10:34:16.737Z,59.87
2023-04-24T10:36:48.425Z,58.71
2023-04-24T10:39:18.853Z,57.39
2023-04-24T10:41:47.463Z,55.87
2023-04-24T10:44:17.136Z,55.42
2023-04-24T10:46:48.727Z,55.53
2023-04-24T10:49:16.759Z,55.49
2023-04-24T10:51:50.113Z,55.83
2023-04-24T10:54:25.424Z,55.39
2023-04-24T10:56:54.092Z,53.80
2023-04-24T10:59:29.467Z,53.26
2023-04-24T11:01:58.913Z,54.41
2023-04-24T11:04:36.410Z,54.08
2023-04-24T11:07:05.839Z,54.56
2023-04-24T11:09:37.405Z,54.14
2023-04-24T11:12:08.052Z,55.07
2023-04-24T11:15:03.754Z,56.42
2023-04-24T11:17:35.284Z,57.82
2023-04-24T11:20:15.393Z,58.74
2023-04-24T11:22:56.503Z,60.30
2023-04-24T11:25:26.355Z,61.01
2023-04-24T11:28:05.643Z,65.92
2023-04-24T11:30:34.728Z,90.93
2023-04-24T11:33:06.543Z,100.00
2023-04-24T11:35:41.209Z,100.00
2023-04-24T11:40:40.816Z,100.00
2023-04-24T11:43:10.912Z,97.33
2023-04-24T11:45:38.872Z,92.37
2023-04-24T11:48:08.319Z,88.54
2023-04-24T11:50:36.859Z,85.40
2023-04-24T11:53:06.568Z,84.08
2023-04-24T11:55:34.554Z,84.49
2023-04-24T11:58:02.727Z,81.50
2023-04-24T12:00:32.741Z,78.00
2023-04-24T12:03:10.536Z,78.58
2023-04-24T12:05:39.440Z,72.24
2023-04-24T12:08:07.748Z,72.96
2023-04-24T12:10:36.785Z,73.77
2023-04-24T12:13:05.132Z,76.86
2023-04-24T12:15:33.305Z,75.32
2023-04-24T12:18:01.878Z,73.51
2023-04-24T12:20:32.780Z,73.88
2023-04-24T12:23:03.026Z,70.42
2023-04-24T12:25:32.458Z,70.78
2023-04-24T12:28:12.772Z,70.45
2023-04-24T12:30:44.033Z,71.78
2023-04-24T12:33:12.392Z,69.16
2023-04-24T12:35:43.084Z,66.97
2023-04-24T12:38:13.849Z,66.63
2023-04-24T12:40:43.521Z,65.52
2023-04-24T12:43:18.125Z,65.42
2023-04-24T12:45:46.495Z,65.99
2023-04-24T12:48:15.741Z,66.05
2023-04-24T12:50:47.547Z,66.49
2023-04-24T12:53:16.337Z,68.06
2023-04-24T12:55:45.596Z,67.99
2023-04-24T12:58:13.920Z,65.92
2023-04-24T13:00:44.481Z,65.86
2023-04-24T13:03:12.874Z,65.92
2023-04-24T13:05:41.257Z,63.97
2023-04-24T13:08:10.695Z,63.46
2023-04-24T13:10:39.004Z,63.29
2023-04-24T13:13:07.009Z,62.51
2023-04-24T13:15:35.457Z,61.16
2023-04-24T13:18:03.785Z,59.39
2023-04-24T13:20:32.217Z,59.86
2023-04-24T13:23:00.138Z,57.38
2023-04-24T13:25:30.769Z,57.78
2023-04-24T13:27:58.632Z,56.27
2023-04-24T13:30:26.601Z,55.94
2023-04-24T13:32:54.557Z,54.91
2023-04-24T13:35:22.559Z,53.95
2023-04-24T13:37:52.872Z,52.84
2023-04-24T13:40:23.891Z,52.75
2023-04-24T13:42:55.495Z,52.15
2023-04-24T13:45:25.175Z,50.29
2023-04-24T13:47:55.330Z,50.55
2023-04-24T13:50:23.577Z,50.00
2023-04-24T13:52:51.677Z,49.63
2023-04-24T13:55:19.813Z,48.82
2023-04-24T13:57:47.912Z,50.29
2023-04-24T14:00:18.418Z,50.76
2023-04-24T14:02:46.470Z,50.64
2023-04-24T14:05:15.203Z,50.17
2023-04-24T14:07:43.602Z,50.30
2023-04-24T14:10:12.260Z,49.25
2023-04-24T14:12:46.403Z,50.21
2023-04-24T14:15:14.700Z,51.72
2023-04-24T14:17:44.275Z,51.18
2023-04-24T14:20:14.568Z,51.28
2023-04-24T14:22:43.993Z,51.26
2023-04-24T14:25:12.424Z,52.16
2023-04-24T14:27:41.178Z,52.54
2023-04-24T14:30:10.414Z,54.23
2023-04-24T14:32:41.049Z,55.35
2023-04-24T14:35:11.108Z,57.33
2023-04-24T14:37:39.284Z,59.19
2023-04-24T14:40:26.690Z,62.88
2023-04-24T14:42:58.237Z,65.40
2023-04-24T14:45:26.300Z,65.04
2023-04-24T14:47:54.574Z,66.82
2023-04-24T14:50:24.895Z,67.71
2023-04-24T14:52:53.157Z,69.31
2023-04-24T14:55:22.122Z,71.12
2023-04-24T14:57:50.128Z,73.09
2023-04-24T15:00:19.189Z,74.21
2023-04-24T15:02:47.428Z,75.71
2023-04-24T15:05:16.014Z,82.91
2023-04-24T15:07:46.539Z,87.90
2023-04-24T15:10:14.458Z,91.88
2023-04-24T15:12:42.455Z,92.40
2023-04-24T15:15:11.473Z,95.62
2023-04-24T15:17:39.777Z,94.67
2023-04-24T15:20:08.928Z,95.29
2023-04-24T15:22:37.484Z,96.51
2023-04-24T15:25:08.131Z,96.06
2023-04-24T15:27:43.649Z,97.99
2023-04-24T15:30:12.763Z,99.10
2023-04-24T15:32:49.948Z,100.00
2023-04-24T15:35:18.639Z,100.00
2023-04-24T15:37:47.014Z,100.00
2023-04-24T15:40:17.662Z,100.00
2023-04-24T15:42:46.423Z,100.00
2023-04-24T15:45:14.758Z,100.00
2023-04-24T15:47:42.813Z,100.00
2023-04-24T15:50:14.340Z,100.00
2023-04-24T15:52:43.088Z,100.00
2023-04-24T15:55:11.866Z,100.00
2023-04-24T15:57:41.330Z,100.00
2023-04-24T16:00:11.355Z,100.00
2023-04-24T16:02:41.236Z,100.00
2023-04-24T16:05:09.906Z,100.00
2023-04-24T16:07:39.816Z,100.00
2023-04-24T16:10:08.551Z,100.00
2023-04-24T16:12:36.724Z,100.00
2023-04-24T16:15:09.522Z,100.00
2023-04-24T16:17:38.327Z,100.00
2023-04-24T16:20:10.182Z,100.00
2023-04-24T16:22:40.075Z,100.00
2023-04-24T16:25:09.355Z,100.00
2023-04-24T16:27:38.823Z,100.00
2023-04-24T16:30:10.632Z,100.00
2023-04-24T16:32:39.286Z,100.00
2023-04-24T16:35:08.420Z,100.00
2023-04-24T16:37:37.142Z,100.00
2023-04-24T16:40:10.820Z,100.00
2023-04-24T16:42:40.079Z,100.00
2023-04-24T16:45:11.658Z,100.00
2023-04-24T16:47:40.322Z,100.00
2023-04-24T16:50:10.050Z,100.00
2023-04-24T16:52:39.448Z,100.00
2023-04-24T16:55:10.286Z,100.00
2023-04-24T16:57:39.171Z,100.00
2023-04-24T17:00:11.659Z,100.00
2023-04-24T17:02:41.006Z,100.00
2023-04-24T17:05:10.280Z,100.00
2023-04-24T17:07:38.999Z,100.00
2023-04-24T17:10:09.468Z,100.00
2023-04-24T17:12:38.163Z,100.00
2023-04-24T17:15:08.008Z,100.00
2023-04-24T17:17:42.790Z,100.00
2023-04-24T17:20:22.080Z,100.00
2023-04-24T17:22:53.157Z,100.00
2023-04-24T17:25:22.282Z,100.00
2023-04-24T17:27:51.022Z,100.00
2023-04-24T17:30:19.640Z,100.00
2023-04-24T17:32:51.118Z,100.00
2023-04-24T17:35:23.110Z,100.00
2023-04-24T17:37:52.161Z,100.00
2023-04-24T17:40:20.947Z,100.00
2023-04-24T17:42:51.241Z,100.00
2023-04-24T17:45:19.281Z,100.00
2023-04-24T17:47:47.332Z,100.00
2023-04-24T17:50:16.833Z,100.00
2023-04-24T17:52:44.729Z,100.00
2023-04-24T17:55:12.837Z,100.00
2023-04-24T17:57:41.141Z,100.00
2023-04-24T18:00:13.288Z,100.00
2023-04-24T18:02:41.397Z,100.00
2023-04-24T18:05:09.540Z,100.00
2023-04-24T18:07:39.285Z,100.00
2023-04-24T18:10:08.380Z,100.00
2023-04-24T18:12:36.257Z,100.00
2023-04-24T18:15:14.361Z,100.00
2023-04-24T18:17:42.972Z,100.00
2023-04-24T18:20:12.006Z,100.00
2023-04-24T18:22:41.846Z,100.00
2023-04-24T18:25:14.035Z,100.00
2023-04-24T18:27:42.637Z,100.00
2023-04-24T18:30:14.719Z,100.00
2023-04-24T18:32:43.319Z,100.00
2023-04-24T18:35:11.737Z,100.00
2023-04-24T18:37:41.694Z,100.00
2023-04-24T18:40:11.362Z,100.00
2023-04-24T18:42:39.642Z,100.00
2023-04-24T18:45:08.795Z,100.00
2023-04-24T18:47:37.072Z,100.00
2023-04-24T18:50:05.462Z,100.00
2023-04-24T18:52:33.548Z,100.00
2023-04-24T18:55:03.667Z,100.00
2023-04-24T18:57:32.316Z,100.00
2023-04-24T19:00:01.223Z,100.00
2023-04-24T19:02:29.423Z,100.00
2023-04-24T19:04:57.402Z,100.00
2023-04-24T19:07:25.239Z,100.00
2023-04-24T19:09:53.214Z,100.00
2023-04-24T19:12:23.205Z,100.00
2023-04-24T19:14:51.748Z,100.00
2023-04-24T19:17:23.633Z,100.00
2023-04-24T19:19:52.434Z,100.00
2023-04-24T19:22:20.980Z,100.00
2023-04-24T19:24:49.097Z,100.00
2023-04-24T19:27:17.162Z,100.00
2023-04-24T19:29:46.632Z,100.00
2023-04-24T19:32:14.669Z,100.00
2023-04-24T19:34:42.696Z,100.00
2023-04-24T19:37:11.164Z,100.00
2023-04-24T19:39:39.146Z,100.00
2023-04-24T19:42:07.775Z,100.00
2023-04-24T19:44:35.893Z,100.00
2023-04-24T19:47:05.340Z,100.00
2023-04-24T19:49:33.193Z,100.00
2023-04-24T19:52:01.360Z,100.00
2023-04-24T19:54:29.808Z,100.00
2023-04-24T19:56:58.233Z,100.00
2023-04-24T19:59:26.175Z,100.00
2023-04-24T20:01:55.239Z,100.00
2023-04-24T20:04:25.835Z,100.00
2023-04-24T20:06:54.047Z,100.00
2023-04-24T20:09:23.119Z,100.00
2023-04-24T20:11:52.522Z,100.00
2023-04-24T20:14:20.672Z,100.00
2023-04-24T20:16:49.593Z,100.00
2023-04-24T20:19:17.994Z,100.00
2023-04-24T20:21:47.739Z,100.00
2023-04-24T20:24:16.730Z,100.00
2023-04-24T20:26:45.257Z,100.00
2023-04-24T20:29:13.985Z,100.00
2023-04-24T20:31:42.228Z,100.00
2023-04-24T20:34:10.794Z,100.00
2023-04-24T20:36:39.220Z,100.00
2023-04-24T20:39:09.287Z,100.00
2023-04-24T20:41:38.704Z,100.00
2023-04-24T20:44:07.067Z,100.00
2023-04-24T20:46:35.236Z,100.00
2023-04-24T20:49:03.628Z,100.00
2023-04-24T20:51:32.441Z,100.00
2023-04-24T20:54:00.330Z,100.00
2023-04-24T20:56:29.780Z,100.00
2023-04-24T20:58:57.918Z,100.00
2023-04-24T21:01:26.110Z,100.00
2023-04-24T21:03:58.417Z,100.00
2023-04-24T21:06:26.500Z,100.00
2023-04-24T21:08:54.594Z,100.00
2023-04-24T21:11:22.589Z,100.00
2023-04-24T21:13:52.180Z,100.00
2023-04-24T21:16:20.942Z,100.00
2023-04-24T21:18:48.935Z,100.00
2023-04-24T21:21:16.941Z,100.00
2023-04-24T21:23:45.065Z,100.00
2023-04-24T21:26:16.022Z,100.00
2023-04-24T21:28:44.819Z,100.00
2023-04-24T21:31:14.976Z,100.00
2023-04-24T21:33:42.996Z,100.00
2023-04-24T21:36:11.300Z,100.00
2023-04-24T21:38:40.359Z,100.00
2023-04-24T21:41:08.267Z,100.00
2023-04-24T21:43:44.036Z,100.00
2023-04-24T21:46:14.174Z,100.00
2023-04-24T21:48:42.099Z,100.00
2023-04-24T21:51:10.277Z,100.00
2023-04-24T21:53:38.308Z,100.00
2023-04-24T21:56:06.858Z,100.00
2023-04-24T21:58:35.784Z,100.00
2023-04-24T22:01:03.765Z,100.00
2023-04-24T22:03:33.394Z,100.00
2023-04-24T22:06:01.435Z,100.00
2023-04-24T22:08:29.344Z,100.00
2023-04-24T22:10:57.917Z,100.00
2023-04-24T22:13:25.896Z,100.00
2023-04-24T22:15:54.007Z,100.00
2023-04-24T22:18:24.599Z,100.00
2023-04-24T22:20:58.586Z,100.00
2023-04-24T22:23:26.648Z,100.00
2023-04-24T22:25:54.586Z,100.00
2023-04-24T22:28:22.500Z,100.00
2023-04-24T22:30:50.428Z,100.00
2023-04-24T22:33:18.521Z,100.00
2023-04-24T22:35:46.477Z,100.00
2023-04-24T22:38:17.258Z,100.00
2023-04-24T22:40:45.178Z,100.00
2023-04-24T22:43:13.465Z,100.00
2023-04-24T22:45:41.558Z,100.00
2023-04-24T22:48:09.525Z,100.00
2023-04-24T22:50:37.576Z,100.00
2023-04-24T22:53:05.485Z,100.00
2023-04-24T22:55:34.856Z,100.00
2023-04-24T22:58:02.954Z,100.00
2023-04-24T23:00:30.872Z,100.00
2023-04-24T23:02:58.981Z,100.00
2023-04-24T23:05:28.065Z,100.00
2023-04-24T23:07:56.046Z,100.00
2023-04-24T23:10:26.636Z,100.00
2023-04-24T23:12:56.083Z,100.00
2023-04-24T23:15:24.057Z,100.00
2023-04-24T23:17:52.695Z,100.00
2023-04-24T23:20:23.576Z,100.00
2023-04-24T23:22:51.545Z,100.00
2023-04-24T23:25:20.713Z,100.00
2023-04-24T23:27:48.667Z,100.00
2023-04-24T23:30:17.916Z,100.00
2023-04-24T23:32:45.853Z,100.00
2023-04-24T23:35:13.960Z,100.00
2023-04-24T23:37:41.910Z,100.00
2023-04-24T23:40:11.500Z,100.00
2023-04-24T23:42:39.559Z,100.00
2023-04-24T23:45:08.510Z,100.00
2023-04-24T23:47:37.804Z,100.00
2023-04-24T23:50:06.875Z,100.00
2023-04-24T23:52:35.394Z,100.00
2023-04-24T23:55:04.728Z,100.00
2023-04-24T23:57:32.682Z,100.00
